sensor_id;sensor_type;location;lat;lon;timestamp;pressure;altitude;pressure_sealevel;temperature;humidity
30682;BME280;17439;48.092;11.842;2023-02-16T00:00:48;96455.38;;;0.81;66.16
30682;BME280;17439;48.092;11.842;2023-02-16T00:03:20;96444.94;;;0.80;65.92
30682;BME280;17439;48.092;11.842;2023-02-16T00:05:48;96444.94;;;0.80;66.10
30682;BME280;17439;48.092;11.842;2023-02-16T00:08:15;96445.94;;;0.79;66.20
30682;BME280;17439;48.092;11.842;2023-02-16T00:10:42;96439.81;;;0.78;66.25
30682;BME280;17439;48.092;11.842;2023-02-16T00:13:23;96448.63;;;0.79;66.11
30682;BME280;17439;48.092;11.842;2023-02-16T00:15:50;96449.66;;;0.78;66.30
30682;BME280;17439;48.092;11.842;2023-02-16T00:18:19;96448.63;;;0.79;66.13
30682;BME280;17439;48.092;11.842;2023-02-16T00:20:49;96450.50;;;0.78;66.07
30682;BME280;17439;48.092;11.842;2023-02-16T00:23:15;96449.66;;;0.78;66.29
30682;BME280;17439;48.092;11.842;2023-02-16T00:25:42;96445.38;;;0.77;66.01
30682;BME280;17439;48.092;11.842;2023-02-16T00:28:15;96448.03;;;0.77;66.09
30682;BME280;17439;48.092;11.842;2023-02-16T00:30:44;96440.03;;;0.77;66.11
30682;BME280;17439;48.092;11.842;2023-02-16T00:33:17;96443.72;;;0.76;66.02
30682;BME280;17439;48.092;11.842;2023-02-16T00:35:44;96442.69;;;0.77;66.10
30682;BME280;17439;48.092;11.842;2023-02-16T00:38:12;96435.72;;;0.76;66.22
30682;BME280;17439;48.092;11.842;2023-02-16T00:40:39;96433.06;;;0.76;66.08
30682;BME280;17439;48.092;11.842;2023-02-16T00:43:07;96441.06;;;0.76;66.21
30682;BME280;17439;48.092;11.842;2023-02-16T00:45:37;96430.38;;;0.76;66.15
30682;BME280;17439;48.092;11.842;2023-02-16T00:48:03;96431.41;;;0.75;66.31
30682;BME280;17439;48.092;11.842;2023-02-16T00:50:32;96427.72;;;0.76;66.17
30682;BME280;17439;48.092;11.842;2023-02-16T00:52:59;96423.41;;;0.75;66.23
30682;BME280;17439;48.092;11.842;2023-02-16T00:55:29;96419.94;;;0.74;66.13
30682;BME280;17439;48.092;11.842;2023-02-16T01:00:52;96417.47;;;0.72;66.08
30682;BME280;17439;48.092;11.842;2023-02-16T01:03:23;96408.91;;;0.70;66.19
30682;BME280;17439;48.092;11.842;2023-02-16T01:05:50;96407.03;;;0.71;66.25
30682;BME280;17439;48.092;11.842;2023-02-16T01:08:17;96404.34;;;0.71;66.39
30682;BME280;17439;48.092;11.842;2023-02-16T01:10:44;96400.88;;;0.70;66.45
30682;BME280;17439;48.092;11.842;2023-02-16T01:13:11;96397.38;;;0.70;66.44
30682;BME280;17439;48.092;11.842;2023-02-16T01:15:39;96401.69;;;0.71;66.37
30682;BME280;17439;48.092;11.842;2023-02-16T01:18:06;96396.56;;;0.69;66.42
30682;BME280;17439;48.092;11.842;2023-02-16T01:20:33;96388.56;;;0.69;66.34
30682;BME280;17439;48.092;11.842;2023-02-16T01:23:00;96383.22;;;0.69;66.51
30682;BME280;17439;48.092;11.842;2023-02-16T01:25:27;96377.09;;;0.69;66.41
30682;BME280;17439;48.092;11.842;2023-02-16T01:27:53;96378.69;;;0.70;66.58
30682;BME280;17439;48.092;11.842;2023-02-16T01:30:22;96375.22;;;0.69;66.56
30682;BME280;17439;48.092;11.842;2023-02-16T01:32:49;96378.69;;;0.70;66.66
30682;BME280;17439;48.092;11.842;2023-02-16T01:35:25;96382.44;;;0.69;66.86
30682;BME280;17439;48.092;11.842;2023-02-16T01:37:54;96389.38;;;0.70;66.89
30682;BME280;17439;48.092;11.842;2023-02-16T01:42:52;96386.47;;;0.71;66.91
30682;BME280;17439;48.092;11.842;2023-02-16T01:45:33;96379.31;;;0.72;66.88
30682;BME280;17439;48.092;11.842;2023-02-16T01:48:05;96382.78;;;0.72;66.95
30682;BME280;17439;48.092;11.842;2023-02-16T01:50:43;96379.09;;;0.74;67.01
30682;BME280;17439;48.092;11.842;2023-02-16T01:56:04;96376.19;;;0.75;66.71
30682;BME280;17439;48.092;11.842;2023-02-16T01:58:51;96380.69;;;0.75;66.60
30682;BME280;17439;48.092;11.842;2023-02-16T02:04:11;96383.13;;;0.76;66.37
30682;BME280;17439;48.092;11.842;2023-02-16T02:06:39;96384.78;;;0.77;66.20
30682;BME280;17439;48.092;11.842;2023-02-16T02:09:44;96382.34;;;0.76;66.03
30682;BME280;17439;48.092;11.842;2023-02-16T02:12:20;96385.44;;;0.72;65.79
30682;BME280;17439;48.092;11.842;2023-02-16T02:14:49;96377.88;;;0.69;66.00
30682;BME280;17439;48.092;11.842;2023-02-16T02:17:19;96389.84;;;0.67;66.03
30682;BME280;17439;48.092;11.842;2023-02-16T02:19:56;96391.09;;;0.64;66.38
30682;BME280;17439;48.092;11.842;2023-02-16T02:25:22;96385.63;;;0.59;66.28
30682;BME280;17439;48.092;11.842;2023-02-16T02:33:08;96384.66;;;0.53;66.37
30682;BME280;17439;48.092;11.842;2023-02-16T02:35:48;96392.88;;;0.52;66.49
30682;BME280;17439;48.092;11.842;2023-02-16T02:38:38;96392.31;;;0.50;66.47
30682;BME280;17439;48.092;11.842;2023-02-16T02:41:33;96398.66;;;0.49;66.55
30682;BME280;17439;48.092;11.842;2023-02-16T02:44:03;96395.41;;;0.47;66.59
30682;BME280;17439;48.092;11.842;2023-02-16T02:46:33;96399.13;;;0.46;66.19
30682;BME280;17439;48.092;11.842;2023-02-16T02:49:02;96404.44;;;0.46;66.23
30682;BME280;17439;48.092;11.842;2023-02-16T02:51:29;96398.53;;;0.44;66.34
30682;BME280;17439;48.092;11.842;2023-02-16T02:56:32;96390.97;;;0.41;66.43
30682;BME280;17439;48.092;11.842;2023-02-16T02:59:04;96386.88;;;0.38;66.21
30682;BME280;17439;48.092;11.842;2023-02-16T03:01:34;96384.44;;;0.36;66.19
30682;BME280;17439;48.092;11.842;2023-02-16T03:04:02;96391.63;;;0.36;66.46
30682;BME280;17439;48.092;11.842;2023-02-16T03:06:33;96386.53;;;0.34;66.25
30682;BME280;17439;48.092;11.842;2023-02-16T03:09:09;96389.41;;;0.33;66.30
30682;BME280;17439;48.092;11.842;2023-02-16T03:11:37;96383.28;;;0.32;66.35
30682;BME280;17439;48.092;11.842;2023-02-16T03:14:14;96384.53;;;0.30;66.16
30682;BME280;17439;48.092;11.842;2023-02-16T03:16:50;96383.72;;;0.29;66.29
30682;BME280;17439;48.092;11.842;2023-02-16T03:19:18;96384.75;;;0.28;66.37
30682;BME280;17439;48.092;11.842;2023-02-16T03:21:45;96378.59;;;0.28;66.42
30682;BME280;17439;48.092;11.842;2023-02-16T03:24:20;96379.84;;;0.25;66.40
30682;BME280;17439;48.092;11.842;2023-02-16T03:26:48;96387.06;;;0.25;66.39
30682;BME280;17439;48.092;11.842;2023-02-16T03:29:15;96390.97;;;0.22;66.28
30682;BME280;17439;48.092;11.842;2023-02-16T03:31:44;96392.03;;;0.21;66.47
30682;BME280;17439;48.092;11.842;2023-02-16T03:34:12;96395.50;;;0.22;66.38
30682;BME280;17439;48.092;11.842;2023-02-16T03:36:42;96396.53;;;0.21;66.19
30682;BME280;17439;48.092;11.842;2023-02-16T03:39:10;96401.28;;;0.18;66.29
30682;BME280;17439;48.092;11.842;2023-02-16T03:41:39;96398.69;;;0.12;65.99
30682;BME280;17439;48.092;11.842;2023-02-16T03:44:05;96398.00;;;0.16;66.26
30682;BME280;17439;48.092;11.842;2023-02-16T03:46:32;96387.56;;;0.15;66.31
30682;BME280;17439;48.092;11.842;2023-02-16T03:48:59;96385.13;;;0.13;66.27
30682;BME280;17439;48.092;11.842;2023-02-16T03:51:25;96394.16;;;0.12;66.37
30682;BME280;17439;48.092;11.842;2023-02-16T03:53:52;96391.69;;;0.11;66.35
30682;BME280;17439;48.092;11.842;2023-02-16T03:56:19;96390.09;;;0.10;66.47
30682;BME280;17439;48.092;11.842;2023-02-16T03:58:45;96391.13;;;0.09;66.45
30682;BME280;17439;48.092;11.842;2023-02-16T04:01:12;96394.00;;;0.07;66.36
30682;BME280;17439;48.092;11.842;2023-02-16T04:03:38;96395.88;;;0.07;66.49
30682;BME280;17439;48.092;11.842;2023-02-16T04:06:05;96401.19;;;0.07;66.55
30682;BME280;17439;48.092;11.842;2023-02-16T04:08:32;96399.34;;;0.07;66.56
30682;BME280;17439;48.092;11.842;2023-02-16T04:10:59;96401.41;;;0.05;66.59
30682;BME280;17439;48.092;11.842;2023-02-16T04:13:25;96393.63;;;0.04;66.47
30682;BME280;17439;48.092;11.842;2023-02-16T04:15:52;96397.91;;;0.05;66.50
30682;BME280;17439;48.092;11.842;2023-02-16T04:18:19;96396.31;;;0.04;66.38
30682;BME280;17439;48.092;11.842;2023-02-16T04:20:45;96397.34;;;0.03;66.48
30682;BME280;17439;48.092;11.842;2023-02-16T04:23:12;96408.00;;;0.03;66.40
30682;BME280;17439;48.092;11.842;2023-02-16T04:25:38;96416.00;;;0.03;66.36
30682;BME280;17439;48.092;11.842;2023-02-16T04:28:05;96406.34;;;0.02;66.32
30682;BME280;17439;48.092;11.842;2023-02-16T04:30:32;96402.88;;;0.01;66.39
30682;BME280;17439;48.092;11.842;2023-02-16T04:32:59;96402.88;;;0.01;66.41
30682;BME280;17439;48.092;11.842;2023-02-16T04:35:25;96401.28;;;0.00;66.26
30682;BME280;17439;48.092;11.842;2023-02-16T04:37:52;96411.09;;;-0.01;66.33
30682;BME280;17439;48.092;11.842;2023-02-16T04:40:19;96405.78;;;-0.01;66.27
30682;BME280;17439;48.092;11.842;2023-02-16T04:42:46;96411.09;;;-0.01;66.28
30682;BME280;17439;48.092;11.842;2023-02-16T04:45:13;96418.28;;;-0.01;66.37
30682;BME280;17439;48.092;11.842;2023-02-16T04:47:40;96408.88;;;-0.04;66.28
30682;BME280;17439;48.092;11.842;2023-02-16T04:50:08;96406.22;;;-0.04;66.33
30682;BME280;17439;48.092;11.842;2023-02-16T04:52:35;96412.19;;;-0.08;65.73
30682;BME280;17439;48.092;11.842;2023-02-16T04:55:02;96410.16;;;-0.06;66.18
30682;BME280;17439;48.092;11.842;2023-02-16T04:57:28;96403.19;;;-0.07;66.14
30682;BME280;17439;48.092;11.842;2023-02-16T04:59:55;96404.19;;;-0.08;66.14
30682;BME280;17439;48.092;11.842;2023-02-16T05:02:21;96406.88;;;-0.08;66.18
30682;BME280;17439;48.092;11.842;2023-02-16T05:04:48;96405.03;;;-0.08;66.14
30682;BME280;17439;48.092;11.842;2023-02-16T05:07:15;96405.47;;;-0.11;66.20
30682;BME280;17439;48.092;11.842;2023-02-16T05:09:42;96401.75;;;-0.10;66.28
30682;BME280;17439;48.092;11.842;2023-02-16T05:12:09;96405.47;;;-0.11;66.35
30682;BME280;17439;48.092;11.842;2023-02-16T05:14:36;96395.63;;;-0.10;66.44
30682;BME280;17439;48.092;11.842;2023-02-16T05:17:03;96392.94;;;-0.10;66.63
30682;BME280;17439;48.092;11.842;2023-02-16T05:19:30;96402.59;;;-0.09;66.50
30682;BME280;17439;48.092;11.842;2023-02-16T05:21:56;96399.09;;;-0.10;66.74
30682;BME280;17439;48.092;11.842;2023-02-16T05:24:23;96399.09;;;-0.10;66.66
30682;BME280;17439;48.092;11.842;2023-02-16T05:26:52;96400.72;;;-0.09;66.52
30682;BME280;17439;48.092;11.842;2023-02-16T05:29:19;96406.88;;;-0.08;66.82
30682;BME280;17439;48.092;11.842;2023-02-16T05:31:45;96413.03;;;-0.08;66.70
30682;BME280;17439;48.092;11.842;2023-02-16T05:34:12;96403.19;;;-0.07;66.63
30682;BME280;17439;48.092;11.842;2023-02-16T05:36:39;96399.69;;;-0.08;66.58
30682;BME280;17439;48.092;11.842;2023-02-16T05:39:05;96407.47;;;-0.06;66.91
30682;BME280;17439;48.092;11.842;2023-02-16T05:41:32;96403.75;;;-0.05;66.76
30682;BME280;17439;48.092;11.842;2023-02-16T05:44:00;96414.19;;;-0.04;66.76
30682;BME280;17439;48.092;11.842;2023-02-16T05:46:27;96417.53;;;-0.08;66.78
30682;BME280;17439;48.092;11.842;2023-02-16T05:48:54;96422.19;;;-0.04;66.89
30682;BME280;17439;48.092;11.842;2023-02-16T05:51:21;96417.72;;;-0.03;66.66
30682;BME280;17439;48.092;11.842;2023-02-16T05:53:47;96418.50;;;-0.03;66.60
30682;BME280;17439;48.092;11.842;2023-02-16T05:56:15;96419.53;;;-0.04;66.82
30682;BME280;17439;48.092;11.842;2023-02-16T05:58:42;96422.19;;;-0.04;66.83
30682;BME280;17439;48.092;11.842;2023-02-16T06:01:08;96429.19;;;-0.03;67.08
30682;BME280;17439;48.092;11.842;2023-02-16T06:03:35;96428.97;;;-0.01;67.00
30682;BME280;17439;48.092;11.842;2023-02-16T06:06:03;96432.22;;;0.01;67.01
30682;BME280;17439;48.092;11.842;2023-02-16T06:08:31;96438.97;;;0.04;67.23
30682;BME280;17439;48.092;11.842;2023-02-16T06:10:59;96440.56;;;0.05;67.14
30682;BME280;17439;48.092;11.842;2023-02-16T06:13:25;96441.19;;;0.07;67.02
30682;BME280;17439;48.092;11.842;2023-02-16T06:15:54;96442.81;;;0.08;67.15
30682;BME280;17439;48.092;11.842;2023-02-16T06:18:23;96441.56;;;0.10;67.19
30682;BME280;17439;48.092;11.842;2023-02-16T06:20:50;96445.03;;;0.11;67.15
30682;BME280;17439;48.092;11.842;2023-02-16T06:23:17;96441.34;;;0.12;67.08
30682;BME280;17439;48.092;11.842;2023-02-16T06:25:48;96447.25;;;0.14;67.02
30682;BME280;17439;48.092;11.842;2023-02-16T06:28:15;96447.88;;;0.16;67.12
30682;BME280;17439;48.092;11.842;2023-02-16T06:30:41;96452.16;;;0.17;67.04
30682;BME280;17439;48.092;11.842;2023-02-16T06:33:08;96453.81;;;0.18;67.19
30682;BME280;17439;48.092;11.842;2023-02-16T06:35:35;96455.41;;;0.19;67.14
30682;BME280;17439;48.092;11.842;2023-02-16T06:38:01;96459.50;;;0.22;67.18
30682;BME280;17439;48.092;11.842;2023-02-16T06:40:28;96453.16;;;0.23;67.28
30682;BME280;17439;48.092;11.842;2023-02-16T06:42:54;96464.19;;;0.26;67.44
30682;BME280;17439;48.092;11.842;2023-02-16T06:45:21;96462.94;;;0.29;67.46
30682;BME280;17439;48.092;11.842;2023-02-16T06:47:48;96461.66;;;0.31;67.63
30682;BME280;17439;48.092;11.842;2023-02-16T06:50:14;96458.34;;;0.36;67.89
30682;BME280;17439;48.092;11.842;2023-02-16T06:52:41;96460.56;;;0.39;68.00
30682;BME280;17439;48.092;11.842;2023-02-16T06:55:07;96457.00;;;0.45;68.09
30682;BME280;17439;48.092;11.842;2023-02-16T06:57:34;96459.59;;;0.52;68.29
30682;BME280;17439;48.092;11.842;2023-02-16T07:00:01;96463.25;;;0.58;68.61
30682;BME280;17439;48.092;11.842;2023-02-16T07:02:28;96462.38;;;0.64;68.90
30682;BME280;17439;48.092;11.842;2023-02-16T07:04:54;96473.53;;;0.72;68.78
30682;BME280;17439;48.092;11.842;2023-02-16T07:07:21;96464.41;;;0.80;68.90
30682;BME280;17439;48.092;11.842;2023-02-16T07:09:49;96477.47;;;0.88;69.12
30682;BME280;17439;48.092;11.842;2023-02-16T07:12:15;96472.66;;;0.97;69.07
30682;BME280;17439;48.092;11.842;2023-02-16T07:14:42;96477.66;;;1.05;69.11
30682;BME280;17439;48.092;11.842;2023-02-16T07:17:09;96488.84;;;1.14;69.10
30682;BME280;17439;48.092;11.842;2023-02-16T07:19:36;96485.06;;;1.22;69.18
30682;BME280;17439;48.092;11.842;2023-02-16T07:22:03;96488.25;;;1.31;69.25
30682;BME280;17439;48.092;11.842;2023-02-16T07:24:30;96477.22;;;1.39;69.46
30682;BME280;17439;48.092;11.842;2023-02-16T07:26:59;96472.97;;;1.50;69.42
30682;BME280;17439;48.092;11.842;2023-02-16T07:29:26;96484.34;;;1.57;69.35
30682;BME280;17439;48.092;11.842;2023-02-16T07:31:53;96483.00;;;1.66;69.38
30682;BME280;17439;48.092;11.842;2023-02-16T07:34:19;96482.44;;;1.76;69.63
30682;BME280;17439;48.092;11.842;2023-02-16T07:36:47;96474.91;;;1.85;69.48
30682;BME280;17439;48.092;11.842;2023-02-16T07:39:14;96486.88;;;1.94;69.54
30682;BME280;17439;48.092;11.842;2023-02-16T07:41:40;96488.16;;;2.03;69.72
30682;BME280;17439;48.092;11.842;2023-02-16T07:44:07;96489.22;;;2.14;69.75
30682;BME280;17439;48.092;11.842;2023-02-16T07:46:34;96491.34;;;2.24;69.81
30682;BME280;17439;48.092;11.842;2023-02-16T07:49:01;96498.78;;;2.33;69.85
30682;BME280;17439;48.092;11.842;2023-02-16T07:51:29;96489.13;;;2.44;69.75
30682;BME280;17439;48.092;11.842;2023-02-16T07:53:57;96489.59;;;2.53;69.75
30682;BME280;17439;48.092;11.842;2023-02-16T07:56:27;96495.41;;;2.62;69.89
30682;BME280;17439;48.092;11.842;2023-02-16T07:58:55;96496.44;;;2.72;70.12
30682;BME280;17439;48.092;11.842;2023-02-16T08:01:21;96497.09;;;2.80;70.04
30682;BME280;17439;48.092;11.842;2023-02-16T08:03:48;96498.94;;;2.91;70.30
30682;BME280;17439;48.092;11.842;2023-02-16T08:06:15;96494.06;;;3.00;70.39
30682;BME280;17439;48.092;11.842;2023-02-16T08:08:42;96498.56;;;3.11;70.55
30682;BME280;17439;48.092;11.842;2023-02-16T08:11:11;96491.78;;;3.20;70.51
30682;BME280;17439;48.092;11.842;2023-02-16T08:13:38;96496.28;;;3.32;70.92
30682;BME280;17439;48.092;11.842;2023-02-16T08:16:15;96495.19;;;3.44;70.27
30682;BME280;17439;48.092;11.842;2023-02-16T08:18:42;96484.41;;;3.56;70.88
30682;BME280;17439;48.092;11.842;2023-02-16T08:21:18;96487.84;;;3.69;69.93
30682;BME280;17439;48.092;11.842;2023-02-16T08:23:46;96487.53;;;3.82;71.03
30682;BME280;17439;48.092;11.842;2023-02-16T08:26:18;96492.59;;;3.95;71.01
30682;BME280;17439;48.092;11.842;2023-02-16T08:28:45;96489.97;;;4.00;70.44
30682;BME280;17439;48.092;11.842;2023-02-16T08:31:13;96503.97;;;4.20;71.11
30682;BME280;17439;48.092;11.842;2023-02-16T08:33:40;96496.09;;;4.30;70.90
30682;BME280;17439;48.092;11.842;2023-02-16T08:36:22;96497.63;;;4.43;70.29
30682;BME280;17439;48.092;11.842;2023-02-16T08:38:50;96499.41;;;4.54;71.11
30682;BME280;17439;48.092;11.842;2023-02-16T08:41:17;96501.97;;;4.66;71.19
30682;BME280;17439;48.092;11.842;2023-02-16T08:43:45;96499.38;;;4.71;70.79
30682;BME280;17439;48.092;11.842;2023-02-16T08:46:11;96501.75;;;4.89;71.48
30682;BME280;17439;48.092;11.842;2023-02-16T08:48:38;96496.03;;;5.03;71.34
30682;BME280;17439;48.092;11.842;2023-02-16T08:51:05;96498.91;;;5.18;71.41
30682;BME280;17439;48.092;11.842;2023-02-16T08:53:33;96497.69;;;5.31;71.31
30682;BME280;17439;48.092;11.842;2023-02-16T08:56:03;96496.81;;;5.48;70.11
30682;BME280;17439;48.092;11.842;2023-02-16T08:58:30;96496.72;;;5.64;71.07
30682;BME280;17439;48.092;11.842;2023-02-16T09:00:57;96492.28;;;5.80;70.87
30682;BME280;17439;48.092;11.842;2023-02-16T09:03:24;96486.25;;;5.95;70.74
30682;BME280;17439;48.092;11.842;2023-02-16T09:05:51;96486.13;;;6.12;70.11
30682;BME280;17439;48.092;11.842;2023-02-16T09:08:20;96489.78;;;6.28;70.03
30682;BME280;17439;48.092;11.842;2023-02-16T09:10:47;96487.72;;;6.46;70.19
30682;BME280;17439;48.092;11.842;2023-02-16T09:13:14;96487.03;;;6.61;69.98
30682;BME280;17439;48.092;11.842;2023-02-16T09:15:41;96491.44;;;6.77;69.41
30682;BME280;17439;48.092;11.842;2023-02-16T09:18:12;96483.44;;;6.93;69.21
30682;BME280;17439;48.092;11.842;2023-02-16T09:20:40;96490.78;;;7.07;68.31
30682;BME280;17439;48.092;11.842;2023-02-16T09:23:11;96494.38;;;7.23;68.50
30682;BME280;17439;48.092;11.842;2023-02-16T09:25:39;96487.66;;;7.36;67.84
30682;BME280;17439;48.092;11.842;2023-02-16T09:28:06;96486.34;;;7.49;67.42
30682;BME280;17439;48.092;11.842;2023-02-16T09:30:33;96495.03;;;7.61;66.97
30682;BME280;17439;48.092;11.842;2023-02-16T09:32:59;96492.38;;;7.72;66.09
30682;BME280;17439;48.092;11.842;2023-02-16T09:35:26;96491.31;;;7.83;66.28
30682;BME280;17439;48.092;11.842;2023-02-16T09:37:53;96494.00;;;7.93;66.03
30682;BME280;17439;48.092;11.842;2023-02-16T09:40:20;96490.50;;;8.03;65.63
30682;BME280;17439;48.092;11.842;2023-02-16T09:42:59;96488.88;;;8.12;65.42
30682;BME280;17439;48.092;11.842;2023-02-16T09:45:30;96489.97;;;8.22;64.81
30682;BME280;17439;48.092;11.842;2023-02-16T09:47:57;96491.34;;;8.29;65.03
30682;BME280;17439;48.092;11.842;2023-02-16T09:50:26;96492.41;;;8.39;63.60
30682;BME280;17439;48.092;11.842;2023-02-16T09:53:21;96488.41;;;8.46;62.19
30682;BME280;17439;48.092;11.842;2023-02-16T09:55:58;96489.44;;;8.56;60.71
30682;BME280;17439;48.092;11.842;2023-02-16T09:58:41;96485.63;;;8.67;60.52
30682;BME280;17439;48.092;11.842;2023-02-16T10:01:23;96487.00;;;8.80;63.41
30682;BME280;17439;48.092;11.842;2023-02-16T10:04:04;96491.56;;;8.89;60.79
30682;BME280;17439;48.092;11.842;2023-02-16T10:09:24;96485.28;;;9.04;62.50
30682;BME280;17439;48.092;11.842;2023-02-16T10:12:00;96486.84;;;9.21;60.02
30682;BME280;17439;48.092;11.842;2023-02-16T10:14:41;96486.50;;;9.38;59.03
30682;BME280;17439;48.092;11.842;2023-02-16T10:19:48;96486.66;;;9.62;57.11
30682;BME280;17439;48.092;11.842;2023-02-16T10:25:03;96481.94;;;9.83;58.31
30682;BME280;17439;48.092;11.842;2023-02-16T10:27:37;96483.78;;;9.93;55.62
30682;BME280;17439;48.092;11.842;2023-02-16T10:30:15;96472.06;;;10.03;54.87
30682;BME280;17439;48.092;11.842;2023-02-16T10:32:53;96472.25;;;10.11;54.14
30682;BME280;17439;48.092;11.842;2023-02-16T10:35:39;96471.34;;;10.21;54.46
30682;BME280;17439;48.092;11.842;2023-02-16T10:38:42;96472.66;;;10.29;49.11
30682;BME280;17439;48.092;11.842;2023-02-16T10:41:30;96468.50;;;10.47;52.04
30682;BME280;17439;48.092;11.842;2023-02-16T10:44:23;96475.16;;;10.55;54.38
30682;BME280;17439;48.092;11.842;2023-02-16T10:46:56;96462.09;;;10.62;52.74
30682;BME280;17439;48.092;11.842;2023-02-16T10:49:25;96467.69;;;10.70;53.69
30682;BME280;17439;48.092;11.842;2023-02-16T10:51:55;96465.25;;;10.74;53.67
30682;BME280;17439;48.092;11.842;2023-02-16T10:54:26;96462.28;;;10.70;54.12
30682;BME280;17439;48.092;11.842;2023-02-16T10:56:55;96460.81;;;10.83;54.24
30682;BME280;17439;48.092;11.842;2023-02-16T10:59:24;96460.75;;;10.88;53.47
30682;BME280;17439;48.092;11.842;2023-02-16T11:01:53;96457.47;;;10.92;52.84
30682;BME280;17439;48.092;11.842;2023-02-16T11:04:37;96456.34;;;10.93;50.29
30682;BME280;17439;48.092;11.842;2023-02-16T11:09:31;96456.47;;;11.06;52.09
30682;BME280;17439;48.092;11.842;2023-02-16T11:11:58;96440.38;;;11.15;52.99
30682;BME280;17439;48.092;11.842;2023-02-16T11:14:27;96440.81;;;11.22;50.41
30682;BME280;17439;48.092;11.842;2023-02-16T11:17:03;96433.63;;;11.32;49.32
30682;BME280;17439;48.092;11.842;2023-02-16T11:19:30;96442.97;;;11.44;52.32
30682;BME280;17439;48.092;11.842;2023-02-16T11:21:56;96434.16;;;11.53;50.75
30682;BME280;17439;48.092;11.842;2023-02-16T11:24:29;96435.63;;;11.64;50.17
30682;BME280;17439;48.092;11.842;2023-02-16T11:27:05;96435.78;;;11.73;46.79
30682;BME280;17439;48.092;11.842;2023-02-16T11:29:40;96430.50;;;11.82;49.68
30682;BME280;17439;48.092;11.842;2023-02-16T11:32:09;96430.72;;;11.85;49.05
30682;BME280;17439;48.092;11.842;2023-02-16T11:39:39;96421.25;;;12.02;49.12
30682;BME280;17439;48.092;11.842;2023-02-16T11:42:17;96414.66;;;12.08;47.70
30682;BME280;17439;48.092;11.842;2023-02-16T11:44:53;96411.53;;;12.14;46.50
30682;BME280;17439;48.092;11.842;2023-02-16T11:49:49;96405.41;;;12.23;47.16
30682;BME280;17439;48.092;11.842;2023-02-16T11:52:30;96402.41;;;12.24;46.06
30682;BME280;17439;48.092;11.842;2023-02-16T11:54:59;96396.97;;;12.24;44.99
30682;BME280;17439;48.092;11.842;2023-02-16T11:57:28;96386.59;;;12.26;43.70
30682;BME280;17439;48.092;11.842;2023-02-16T11:59:56;96384.91;;;12.30;45.92
30682;BME280;17439;48.092;11.842;2023-02-16T12:16:15;96374.75;;;12.50;42.35
30682;BME280;17439;48.092;11.842;2023-02-16T12:18:50;96364.59;;;12.56;44.67
30682;BME280;17439;48.092;11.842;2023-02-16T12:24:16;96359.16;;;12.69;40.96
30682;BME280;17439;48.092;11.842;2023-02-16T12:26:52;96356.34;;;12.75;40.14
30682;BME280;17439;48.092;11.842;2023-02-16T12:35:29;96344.81;;;12.92;43.20
30682;BME280;17439;48.092;11.842;2023-02-16T12:43:36;96342.09;;;13.05;41.67
30682;BME280;17439;48.092;11.842;2023-02-16T12:46:31;96343.91;;;13.10;41.42
30682;BME280;17439;48.092;11.842;2023-02-16T12:49:03;96346.72;;;13.19;40.75
30682;BME280;17439;48.092;11.842;2023-02-16T12:51:40;96337.31;;;13.25;42.07
30682;BME280;17439;48.092;11.842;2023-02-16T12:54:25;96332.88;;;13.29;41.37
30682;BME280;17439;48.092;11.842;2023-02-16T12:57:02;96338.81;;;13.31;40.04
30682;BME280;17439;48.092;11.842;2023-02-16T12:59:58;96328.97;;;13.35;42.81
30682;BME280;17439;48.092;11.842;2023-02-16T13:02:34;96320.19;;;13.38;42.25
30682;BME280;17439;48.092;11.842;2023-02-16T13:05:06;96302.44;;;13.41;41.75
30682;BME280;17439;48.092;11.842;2023-02-16T13:07:37;96307.03;;;13.40;39.97
30682;BME280;17439;48.092;11.842;2023-02-16T13:13:08;96310.25;;;13.42;35.55
30682;BME280;17439;48.092;11.842;2023-02-16T13:15:47;96313.38;;;13.50;40.19
30682;BME280;17439;48.092;11.842;2023-02-16T13:18:21;96308.31;;;13.57;40.22
30682;BME280;17439;48.092;11.842;2023-02-16T13:20:54;96303.34;;;13.59;39.45
30682;BME280;17439;48.092;11.842;2023-02-16T13:31:20;96296.72;;;13.74;40.30
30682;BME280;17439;48.092;11.842;2023-02-16T13:34:18;96300.59;;;13.73;40.22
30682;BME280;17439;48.092;11.842;2023-02-16T13:45:27;96286.50;;;13.79;38.03
30682;BME280;17439;48.092;11.842;2023-02-16T13:47:56;96288.00;;;13.86;40.19
30682;BME280;17439;48.092;11.842;2023-02-16T13:50:30;96281.53;;;13.82;35.08
30682;BME280;17439;48.092;11.842;2023-02-16T13:53:09;96285.44;;;13.89;35.02
30682;BME280;17439;48.092;11.842;2023-02-16T13:55:38;96289.47;;;13.92;35.93
30682;BME280;17439;48.092;11.842;2023-02-16T14:00:38;96278.44;;;13.97;37.19
30682;BME280;17439;48.092;11.842;2023-02-16T14:05:46;96290.00;;;14.03;37.33
30682;BME280;17439;48.092;11.842;2023-02-16T14:08:14;96290.81;;;14.03;37.39
30682;BME280;17439;48.092;11.842;2023-02-16T14:13:26;96288.09;;;14.03;37.76
30682;BME280;17439;48.092;11.842;2023-02-16T14:15:55;96288.56;;;14.05;38.60
30682;BME280;17439;48.092;11.842;2023-02-16T14:18:42;96285.84;;;14.05;38.56
30682;BME280;17439;48.092;11.842;2023-02-16T14:21:24;96279.41;;;14.01;34.79
30682;BME280;17439;48.092;11.842;2023-02-16T14:23:54;96281.50;;;14.04;38.42
30682;BME280;17439;48.092;11.842;2023-02-16T14:26:21;96279.59;;;14.05;39.04
30682;BME280;17439;48.092;11.842;2023-02-16T14:29:20;96276.19;;;13.99;34.92
30682;BME280;17439;48.092;11.842;2023-02-16T14:31:55;96280.22;;;14.02;38.49
30682;BME280;17439;48.092;11.842;2023-02-16T14:34:27;96282.13;;;14.01;39.36
30682;BME280;17439;48.092;11.842;2023-02-16T14:39:55;96273.47;;;13.99;38.71
30682;BME280;17439;48.092;11.842;2023-02-16T14:42:35;96270.13;;;14.02;40.44
30682;BME280;17439;48.092;11.842;2023-02-16T14:45:10;96275.56;;;14.02;40.46
30682;BME280;17439;48.092;11.842;2023-02-16T14:50:32;96272.38;;;14.00;39.91
30682;BME280;17439;48.092;11.842;2023-02-16T14:53:20;96264.97;;;14.01;40.18
30682;BME280;17439;48.092;11.842;2023-02-16T14:56:26;96265.28;;;13.99;39.69